Time;durP1;ratioP1;P1;durP2;ratioP2;P2;SDS_P1;SDS_P2;PMS_P1;PMS_P2;Temp;Humidity;BMP_temperature;BMP_pressure;BME280_temperature;BME280_humidity;BME280_pressure;Samples;Min_cycle;Max_cycle;Signal;HPM_P1;HPM_P2
2022/11/13 00:01:21;;;;;;;40.70;20.85;;;;;;;-143.48;86.78;80392.53;5029378;28;20036;-73
2022/11/13 00:03:46;;;;;;;36.95;20.38;;;;;;;-143.48;86.91;80394.50;5031003;28;20492;-72
2022/11/13 00:06:13;;;;;;;41.78;20.92;;;;;;;-143.48;86.98;80402.44;5012635;28;20029;-73
2022/11/13 00:08:39;;;;;;;47.03;20.55;;;;;;;-143.48;87.43;80388.56;5029717;28;20393;-74
2022/11/13 00:11:13;;;;;;;41.33;20.17;;;;;;;-143.48;87.37;80376.66;5030696;28;20021;-73
2022/11/13 00:13:39;;;;;;;34.70;19.52;;;;;;;-143.48;86.79;80380.63;5031534;28;20030;-72
2022/11/13 00:16:09;;;;;;;40.25;19.88;;;;;;;-143.48;86.42;80398.47;5034444;28;20097;-72
2022/11/13 00:18:36;;;;;;;36.25;20.10;;;;;;;-143.48;86.15;80398.47;5033129;28;20466;-74
2022/11/13 00:21:11;;;;;;;36.45;18.27;;;;;;;-143.48;87.05;80392.53;5032432;28;20485;-73
2022/11/13 00:23:37;;;;;;;36.90;19.67;;;;;;;-143.48;86.94;80382.59;5035436;28;20025;-72
2022/11/13 00:26:06;;;;;;;38.20;19.92;;;;;;;-143.48;87.34;80386.56;5036009;28;20032;-72
2022/11/13 00:28:32;;;;;;;34.80;18.75;;;;;;;-143.48;87.55;80378.63;5034660;28;20026;-72
2022/11/13 00:31:01;;;;;;;40.00;18.30;;;;;;;-143.48;87.64;80358.78;5034753;28;20021;-72
2022/11/13 00:33:27;;;;;;;37.63;18.60;;;;;;;-143.48;86.77;80378.63;5034533;28;20075;-71
2022/11/13 00:35:53;;;;;;;41.75;17.75;;;;;;;-143.48;87.52;80374.66;5035735;28;20108;-72
2022/11/13 00:38:18;;;;;;;37.63;18.42;;;;;;;-143.48;87.70;80368.72;5035685;28;20029;-71
2022/11/13 00:40:44;;;;;;;37.97;18.40;;;;;;;-143.48;87.88;80354.81;5034501;28;20017;-73
2022/11/13 00:43:09;;;;;;;39.05;18.35;;;;;;;-143.48;87.86;80348.88;5035576;28;20124;-72
2022/11/13 00:45:35;;;;;;;38.00;17.75;;;;;;;-143.48;86.83;80356.81;5035557;28;20039;-71
2022/11/13 00:48:00;;;;;;;35.28;17.00;;;;;;;-143.48;87.36;80368.72;5035640;28;20484;-71
2022/11/13 00:50:25;;;;;;;31.63;16.92;;;;;;;-143.48;87.20;80368.72;5034033;28;20021;-71
2022/11/13 00:52:50;;;;;;;36.63;17.27;;;;;;;-143.48;87.50;80364.75;5034511;28;20384;-72
2022/11/13 00:55:16;;;;;;;39.40;16.75;;;;;;;-143.48;87.36;80366.72;5035431;28;20472;-72
2022/11/13 00:57:41;;;;;;;32.42;16.95;;;;;;;-143.48;88.25;80346.88;5034079;28;20025;-71
2022/11/13 01:00:09;;;;;;;29.58;15.80;;;;;;;-143.48;87.60;80340.94;5035155;28;20083;-72
2022/11/13 01:02:34;;;;;;;35.92;15.70;;;;;;;-143.48;87.24;80352.84;5035164;28;20033;-72
2022/11/13 01:05:00;;;;;;;35.90;15.77;;;;;;;-143.48;87.42;80348.88;5035219;28;20028;-72
2022/11/13 01:07:25;;;;;;;26.58;14.05;;;;;;;-143.48;86.99;80356.81;5033971;28;20044;-72
2022/11/13 01:09:51;;;;;;;30.85;15.43;;;;;;;-143.48;87.65;80346.88;5035022;28;20028;-72
2022/11/13 01:12:16;;;;;;;26.00;15.02;;;;;;;-143.48;87.78;80325.06;5033881;28;20072;-72
2022/11/13 01:14:41;;;;;;;29.23;14.43;;;;;;;-143.48;88.28;80313.16;5035350;28;20060;-73
2022/11/13 01:17:07;;;;;;;25.70;14.00;;;;;;;-143.48;87.83;80309.19;5034959;28;20025;-72
2022/11/13 01:19:32;;;;;;;28.15;14.35;;;;;;;-143.48;87.89;80311.16;5034991;28;20112;-71
2022/11/13 01:21:57;;;;;;;27.10;14.35;;;;;;;-143.48;87.79;80305.22;5034908;28;20029;-72
2022/11/13 01:24:23;;;;;;;26.70;13.50;;;;;;;-143.48;88.01;80317.13;5033548;28;20021;-72
2022/11/13 01:26:48;;;;;;;28.63;14.02;;;;;;;-143.48;87.70;80311.16;5034617;28;20026;-74
2022/11/13 01:29:13;;;;;;;33.72;13.73;;;;;;;-143.48;87.68;80325.06;5032780;28;20028;-73
2022/11/13 01:31:39;;;;;;;26.25;13.90;;;;;;;-143.48;87.26;80323.06;5033346;28;20040;-72
2022/11/13 01:34:04;;;;;;;24.55;12.48;;;;;;;-143.48;87.32;80321.09;5033197;28;20126;-72
2022/11/13 01:36:29;;;;;;;24.95;13.02;;;;;;;-143.48;87.06;80331.00;5034705;28;20060;-72
2022/11/13 01:38:55;;;;;;;26.38;12.55;;;;;;;-143.48;87.22;80333.00;5033265;28;20388;-72
2022/11/13 01:41:29;;;;;;;22.98;12.95;;;;;;;-143.48;87.31;80336.97;5033057;28;20041;-74
2022/11/13 01:43:55;;;;;;;24.58;12.93;;;;;;;-143.48;87.23;80348.88;5034541;28;20032;-72
2022/11/13 01:46:32;;;;;;;22.95;12.43;;;;;;;-143.48;86.96;80348.88;5034624;28;20033;-72
2022/11/13 01:49:16;;;;;;;22.90;11.32;;;;;;;-143.48;87.18;80354.81;5033288;28;20013;-72
2022/11/13 01:51:49;;;;;;;22.05;12.02;;;;;;;-143.48;87.57;80329.03;5033605;28;20484;-73
2022/11/13 01:54:18;;;;;;;23.37;13.20;;;;;;;-143.48;87.63;80331.00;5032156;28;20060;-72
2022/11/13 01:56:43;;;;;;;25.38;12.57;;;;;;;-143.48;87.55;80323.06;5033586;28;20031;-72
2022/11/13 01:59:13;;;;;;;22.08;12.07;;;;;;;-143.48;87.05;80323.06;5033038;28;20437;-73
2022/11/13 02:01:39;;;;;;;21.92;12.18;;;;;;;-143.48;87.26;80333.00;5034378;28;20021;-73
2022/11/13 02:04:04;;;;;;;23.27;12.65;;;;;;;-143.48;86.91;80340.94;5033557;28;20385;-72
2022/11/13 02:06:37;;;;;;;25.48;12.43;;;;;;;-143.48;87.02;80348.88;5035066;28;20055;-72
2022/11/13 02:09:03;;;;;;;19.52;11.07;;;;;;;-143.48;87.37;80356.81;5035329;28;20028;-72
2022/11/13 02:11:29;;;;;;;20.63;11.65;;;;;;;-143.48;86.92;80356.81;5033888;28;20117;-72
2022/11/13 02:13:54;;;;;;;21.40;11.82;;;;;;;-143.48;87.16;80360.78;5035088;28;20049;-74
2022/11/13 02:16:21;;;;;;;21.40;12.18;;;;;;;-143.48;87.26;80354.81;5035085;28;20025;-72
2022/11/13 02:18:47;;;;;;;23.02;11.68;;;;;;;-143.48;87.15;80340.94;5035995;28;20025;-72
2022/11/13 02:21:24;;;;;;;21.65;11.40;;;;;;;-143.48;86.69;80350.84;5034282;28;20044;-74
2022/11/13 02:24:00;;;;;;;23.02;11.98;;;;;;;-143.48;87.21;80344.91;5034372;28;20041;-72
2022/11/13 02:26:26;;;;;;;21.42;11.68;;;;;;;-143.48;86.35;80358.78;5040683;28;20040;-73
2022/11/13 02:28:52;;;;;;;25.92;12.55;;;;;;;-143.48;87.24;80356.81;5052715;28;20036;-73
2022/11/13 02:31:17;;;;;;;21.35;11.65;;;;;;;-143.48;86.90;80356.81;5052241;28;20013;-73
2022/11/13 02:33:42;;;;;;;21.38;12.27;;;;;;;-143.48;87.15;80356.81;5052599;28;20014;-72
2022/11/13 02:36:10;;;;;;;21.58;12.10;;;;;;;-143.48;86.42;80370.69;5052149;28;20037;-75
2022/11/13 02:38:37;;;;;;;22.00;11.32;;;;;;;-143.48;86.92;80360.78;5052819;28;20028;-77
2022/11/13 02:41:03;;;;;;;22.92;11.38;;;;;;;-143.48;86.72;80358.78;5053901;28;20018;-72
2022/11/13 02:43:28;;;;;;;19.63;11.30;;;;;;;-143.48;86.48;80356.81;5053596;28;20495;-73
2022/11/13 02:45:53;;;;;;;21.50;11.90;;;;;;;-143.48;86.74;80354.81;5053992;28;20029;-72
2022/11/13 02:48:19;;;;;;;18.98;11.18;;;;;;;-143.48;86.63;80360.78;5038346;28;20032;-73
2022/11/13 02:50:45;;;;;;;18.95;11.32;;;;;;;-143.48;86.09;80356.81;5035595;28;20112;-72
2022/11/13 02:53:10;;;;;;;18.48;10.68;;;;;;;-143.48;86.22;80354.81;5018475;28;20093;-72
2022/11/13 02:55:35;;;;;;;19.77;11.93;;;;;;;-143.48;86.30;80342.91;5036621;28;20029;-73
2022/11/13 02:58:01;;;;;;;18.10;10.50;;;;;;;-143.48;85.86;80348.88;5035590;28;20025;-72
2022/11/13 03:00:26;;;;;;;17.88;10.20;;;;;;;-143.48;86.53;80331.00;5036100;28;20469;-72
2022/11/13 03:02:52;;;;;;;16.98;10.05;;;;;;;-143.48;86.06;80331.00;5033857;28;20029;-72
2022/11/13 03:05:17;;;;;;;18.77;10.55;;;;;;;-143.48;86.17;80336.97;5035807;28;20493;-72
2022/11/13 03:07:43;;;;;;;16.48;10.10;;;;;;;-143.48;85.88;80334.97;5033278;28;20032;-72
2022/11/13 03:10:09;;;;;;;19.23;10.35;;;;;;;-143.48;86.04;80331.00;5034379;28;20025;-73
2022/11/13 03:12:35;;;;;;;18.50;10.63;;;;;;;-143.48;85.96;80327.03;5033994;28;20476;-72
2022/11/13 03:15:00;;;;;;;18.95;10.50;;;;;;;-143.48;86.35;80323.06;5032576;28;20022;-72
2022/11/13 03:17:25;;;;;;;22.25;10.75;;;;;;;-143.48;86.25;80315.13;5033721;28;20408;-72
2022/11/13 03:19:51;;;;;;;16.65;10.02;;;;;;;-143.48;85.91;80329.03;5032267;28;20120;-73
2022/11/13 03:22:16;;;;;;;17.15;10.32;;;;;;;-143.48;85.81;80329.03;5032194;28;20021;-72
2022/11/13 03:24:41;;;;;;;19.40;10.35;;;;;;;-143.48;86.05;80325.06;5032498;28;20412;-72
2022/11/13 03:27:07;;;;;;;16.83;10.15;;;;;;;-143.48;85.96;80321.09;5033370;28;20057;-72
2022/11/13 03:29:32;;;;;;;19.75;10.48;;;;;;;-143.48;85.43;80327.03;5032016;28;20021;-72
2022/11/13 03:31:57;;;;;;;19.05;10.38;;;;;;;-143.48;85.36;80346.88;5033031;28;20052;-72
2022/11/13 03:34:22;;;;;;;20.83;11.00;;;;;;;-143.48;85.67;80362.75;5033334;28;20033;-72
2022/11/13 03:36:48;;;;;;;19.85;10.55;;;;;;;-143.48;86.08;80364.75;5033230;28;20354;-72
2022/11/13 03:39:13;;;;;;;18.30;10.52;;;;;;;-143.48;86.04;80364.75;5031793;28;20481;-73
2022/11/13 03:41:38;;;;;;;15.98;10.15;;;;;;;-143.48;86.54;80354.81;5031678;28;20045;-72
2022/11/13 03:44:04;;;;;;;20.67;10.60;;;;;;;-143.48;86.52;80344.91;5031718;28;20440;-72
2022/11/13 03:46:29;;;;;;;16.65;10.80;;;;;;;-143.48;86.50;80342.91;5031898;28;20069;-72
2022/11/13 03:48:54;;;;;;;17.42;10.20;;;;;;;-143.48;85.88;80348.88;5034025;28;20049;-73
2022/11/13 03:51:19;;;;;;;16.15;10.68;;;;;;;-143.48;86.32;80352.84;5036741;28;20382;-72
2022/11/13 03:53:45;;;;;;;16.42;10.63;;;;;;;-143.48;85.99;80346.88;5036596;28;20549;-72
2022/11/13 03:56:10;;;;;;;19.17;10.63;;;;;;;-143.48;85.99;80340.94;5036426;28;20021;-72
2022/11/13 03:58:35;;;;;;;17.95;10.38;;;;;;;-143.48;86.09;80346.88;5036547;28;20055;-74
2022/11/13 04:01:01;;;;;;;16.08;9.77;;;;;;;-143.48;85.86;80340.94;5035202;28;20112;-73
2022/11/13 04:03:26;;;;;;;17.55;9.68;;;;;;;-143.48;85.54;80342.91;5035016;28;20041;-72
2022/11/13 04:05:51;;;;;;;15.75;9.45;;;;;;;-143.48;84.93;80356.81;5036507;28;20472;-72
2022/11/13 04:08:17;;;;;;;17.33;10.20;;;;;;;-143.48;85.37;80356.81;5035068;28;20078;-73
2022/11/13 04:10:44;;;;;;;16.38;10.15;;;;;;;-143.48;85.36;80354.81;5035100;28;20339;-72
2022/11/13 04:13:09;;;;;;;19.70;10.60;;;;;;;-143.48;85.36;80362.75;5035179;28;20126;-72
2022/11/13 04:15:35;;;;;;;17.33;10.02;;;;;;;-143.48;85.69;80344.91;5034968;28;20484;-72
2022/11/13 04:18:00;;;;;;;17.92;10.32;;;;;;;-143.48;85.78;80344.91;5036301;28;20026;-72
2022/11/13 04:20:29;;;;;;;17.98;10.93;;;;;;;-143.48;85.96;80348.88;5034926;28;20488;-72
2022/11/13 04:22:55;;;;;;;20.52;9.98;;;;;;;-143.48;86.12;80340.94;5036153;28;20033;-72
2022/11/13 04:25:21;;;;;;;19.13;10.68;;;;;;;-143.48;85.65;80311.16;5036055;28;20028;-72
2022/11/13 04:27:50;;;;;;;18.77;9.57;;;;;;;-143.48;85.05;80325.06;5036058;28;20109;-72
2022/11/13 04:30:15;;;;;;;17.02;9.73;;;;;;;-143.48;85.35;80331.00;5034708;28;20377;-73
2022/11/13 04:32:41;;;;;;;15.73;9.40;;;;;;;-143.48;85.23;80344.91;5034668;28;20033;-72
2022/11/13 04:35:06;;;;;;;18.33;10.00;;;;;;;-143.48;84.84;80348.88;5035747;28;20029;-72
2022/11/13 04:37:32;;;;;;;15.85;9.23;;;;;;;-143.48;84.78;80362.75;5035768;28;20086;-72
2022/11/13 04:39:57;;;;;;;19.10;10.60;;;;;;;-143.48;85.62;80344.91;5034623;28;20492;-72
2022/11/13 04:45:07;;;;;;;16.67;9.35;;;;;;;-143.48;85.13;80350.84;5035943;28;20566;-72
2022/11/13 04:47:32;;;;;;;21.13;10.00;;;;;;;-143.48;85.35;80342.91;5035578;28;20092;-72
2022/11/13 04:49:58;;;;;;;16.15;9.90;;;;;;;-143.48;85.42;80334.97;5035499;28;20025;-73
2022/11/13 04:52:23;;;;;;;16.08;9.68;;;;;;;-143.48;84.88;80340.94;5035547;28;20035;-72
2022/11/13 04:54:48;;;;;;;17.10;10.52;;;;;;;-143.48;85.32;80329.03;5035540;28;20044;-72
2022/11/13 04:57:13;;;;;;;16.90;9.93;;;;;;;-143.48;85.01;80342.91;5035379;28;20032;-73
2022/11/13 04:59:39;;;;;;;17.58;9.95;;;;;;;-143.48;85.05;80350.84;5035152;28;20033;-73
2022/11/13 05:02:04;;;;;;;18.83;10.10;;;;;;;-143.48;84.93;80358.78;5035414;28;20025;-72
2022/11/13 05:04:29;;;;;;;22.30;10.07;;;;;;;-143.48;85.41;80360.78;5034197;28;20124;-72
2022/11/13 05:06:54;;;;;;;15.73;9.70;;;;;;;-143.48;85.01;80356.81;5035155;28;20393;-72
2022/11/13 05:09:20;;;;;;;17.83;10.25;;;;;;;-143.48;84.71;80350.84;5035044;28;20100;-72
2022/11/13 05:11:45;;;;;;;16.83;10.05;;;;;;;-143.48;84.29;80358.78;5033756;28;20021;-72
2022/11/13 05:14:11;;;;;;;15.35;9.48;;;;;;;-143.48;84.22;80364.75;5035196;28;20530;-72
2022/11/13 05:16:37;;;;;;;16.38;9.93;;;;;;;-143.48;84.55;80366.72;5033952;28;20022;-72
2022/11/13 05:19:05;;;;;;;16.40;9.82;;;;;;;-143.48;84.88;80368.72;5034878;28;20473;-73
2022/11/13 05:21:35;;;;;;;16.30;9.90;;;;;;;-143.48;85.01;80364.75;5035144;28;20032;-73
2022/11/13 05:24:00;;;;;;;16.65;9.73;;;;;;;-143.48;84.83;80360.78;5034916;28;20033;-72
2022/11/13 05:26:27;;;;;;;18.42;10.23;;;;;;;-143.48;85.35;80348.88;5034916;28;20428;-73
2022/11/13 05:28:55;;;;;;;16.95;10.27;;;;;;;-143.48;84.76;80354.81;5033540;28;20044;-72
2022/11/13 05:31:20;;;;;;;15.48;9.95;;;;;;;-143.48;84.26;80370.69;5033423;28;20025;-72
2022/11/13 05:33:45;;;;;;;15.80;9.85;;;;;;;-143.48;84.74;80376.66;5034806;28;20087;-72
2022/11/13 05:36:13;;;;;;;15.18;10.30;;;;;;;-143.48;84.87;80364.75;5033318;28;20033;-73
2022/11/13 05:38:39;;;;;;;14.57;9.40;;;;;;;-143.48;84.43;80372.69;5033144;28;20112;-72
2022/11/13 05:41:09;;;;;;;14.45;9.82;;;;;;;-143.48;84.20;80382.59;5034372;28;20484;-72
2022/11/13 05:43:35;;;;;;;15.55;10.05;;;;;;;-143.48;85.05;80374.66;5033259;28;20026;-73
2022/11/13 05:46:19;;;;;;;17.55;10.02;;;;;;;-143.48;84.85;80376.66;5033234;28;20520;-72
2022/11/13 05:48:45;;;;;;;20.75;10.65;;;;;;;-143.48;84.80;80380.63;5034599;28;20021;-72
2022/11/13 05:51:17;;;;;;;19.27;10.40;;;;;;;-143.48;85.08;80392.53;5032914;28;20163;-72
2022/11/13 05:53:43;;;;;;;17.27;10.35;;;;;;;-143.48;84.76;80356.81;5034233;28;20094;-72
2022/11/13 05:56:13;;;;;;;15.85;10.05;;;;;;;-143.48;84.42;80340.94;5034359;28;20104;-73
2022/11/13 05:58:39;;;;;;;16.23;9.88;;;;;;;-143.48;84.29;80344.91;5033452;28;20163;-72
2022/11/13 06:01:19;;;;;;;19.95;10.82;;;;;;;-143.48;84.34;80354.81;5032887;28;20055;-73
2022/11/13 06:03:45;;;;;;;17.80;10.07;;;;;;;-143.48;84.42;80352.84;5034020;28;20041;-72
2022/11/13 06:06:13;;;;;;;16.00;10.23;;;;;;;-143.48;83.90;80350.84;5034164;28;20488;-73
2022/11/13 06:08:39;;;;;;;18.33;9.85;;;;;;;-143.48;84.11;80358.78;5034243;28;20028;-72
2022/11/13 06:11:08;;;;;;;15.88;9.88;;;;;;;-143.48;83.83;80366.72;5032223;28;20017;-72
2022/11/13 06:13:34;;;;;;;15.25;9.57;;;;;;;-143.48;84.50;80360.78;5035905;28;20505;-72
2022/11/13 06:16:05;;;;;;;15.20;10.20;;;;;;;-143.48;84.16;80376.66;5032532;28;20033;-72
2022/11/13 06:18:31;;;;;;;16.27;10.02;;;;;;;-143.48;84.77;80382.59;5033836;28;20036;-72
2022/11/13 06:21:03;;;;;;;18.17;10.18;;;;;;;-143.48;85.09;80374.66;5033907;28;20017;-72
2022/11/13 06:23:31;;;;;;;17.33;10.10;;;;;;;-143.48;85.23;80380.63;5033883;28;20033;-72
2022/11/13 06:26:06;;;;;;;17.92;10.35;;;;;;;-143.48;84.79;80378.63;5033746;28;20028;-72
2022/11/13 06:28:33;;;;;;;16.50;10.02;;;;;;;-143.48;84.55;80380.63;5032490;28;20075;-72
2022/11/13 06:31:16;;;;;;;16.90;10.48;;;;;;;-143.48;84.36;80400.47;5033698;28;20024;-71
2022/11/13 06:33:42;;;;;;;16.98;10.20;;;;;;;-143.48;84.74;80416.34;5033629;28;20048;-72
2022/11/13 06:36:13;;;;;;;16.33;10.40;;;;;;;-143.48;84.45;80412.38;5033414;28;20021;-72
2022/11/13 06:38:40;;;;;;;16.10;10.25;;;;;;;-143.48;84.26;80414.34;5033437;28;20396;-73
2022/11/13 06:41:07;;;;;;;17.05;10.45;;;;;;;-143.48;84.74;80410.38;5033326;28;20021;-72
2022/11/13 06:43:33;;;;;;;17.85;10.30;;;;;;;-143.48;84.50;80406.41;5033498;28;20037;-72
2022/11/13 06:46:03;;;;;;;17.80;10.90;;;;;;;-143.48;84.81;80418.31;5032168;28;20044;-72
2022/11/13 06:48:28;;;;;;;17.17;11.13;;;;;;;-143.48;84.72;80418.31;5033340;28;20092;-72
2022/11/13 06:50:54;;;;;;;17.65;11.18;;;;;;;-143.48;84.86;80412.38;5038381;28;20072;-75
2022/11/13 06:53:19;;;;;;;17.65;11.43;;;;;;;-143.48;84.04;80416.34;5037983;28;20071;-74
2022/11/13 06:55:47;;;;;;;21.33;11.70;;;;;;;-143.48;84.42;80434.19;5044967;28;20033;-73
2022/11/13 06:58:13;;;;;;;18.38;11.38;;;;;;;-143.48;84.12;80434.19;5044069;28;20036;-73
2022/11/13 07:00:39;;;;;;;18.52;11.55;;;;;;;-143.48;84.42;80428.25;5038448;28;20388;-73
2022/11/13 07:03:05;;;;;;;18.10;11.98;;;;;;;-143.48;84.60;80426.25;5034340;28;20033;-79
2022/11/13 07:05:30;;;;;;;18.35;10.52;;;;;;;-143.48;84.12;80424.28;5043837;28;20485;-73
2022/11/13 07:07:55;;;;;;;17.65;10.75;;;;;;;-143.48;83.88;80430.22;5044795;28;20028;-73
2022/11/13 07:10:21;;;;;;;19.98;10.43;;;;;;;-143.48;83.69;80424.28;5041710;28;20070;-78
2022/11/13 07:12:46;;;;;;;17.52;10.10;;;;;;;-143.48;83.84;80426.25;5041974;28;20029;-76
2022/11/13 07:15:11;;;;;;;18.33;11.05;;;;;;;-143.48;84.12;80418.31;5040940;28;20515;-73
2022/11/13 07:17:36;;;;;;;19.95;11.02;;;;;;;-143.48;83.84;80406.41;5044288;28;20081;-73
2022/11/13 07:20:02;;;;;;;19.50;10.82;;;;;;;-143.48;83.39;80406.41;5042600;28;20055;-76
2022/11/13 07:22:32;;;;;;;18.17;10.40;;;;;;;-143.48;83.21;80404.44;5042044;28;20028;-76
2022/11/13 07:24:57;;;;;;;15.90;10.70;;;;;;;-143.48;83.56;80388.56;5046553;28;20420;-76
2022/11/13 07:27:22;;;;;;;18.90;10.85;;;;;;;-143.48;83.29;80380.63;5045579;28;20033;-73
2022/11/13 07:29:48;;;;;;;20.40;11.15;;;;;;;-143.48;83.17;80364.75;5046897;28;20167;-72
2022/11/13 07:32:13;;;;;;;16.20;10.20;;;;;;;-143.48;83.18;80362.75;5046981;28;20071;-73
2022/11/13 07:34:38;;;;;;;18.75;11.10;;;;;;;-143.48;83.69;80342.91;5047148;28;20033;-76
2022/11/13 07:37:05;;;;;;;17.75;10.75;;;;;;;-143.48;82.72;80319.09;5038700;28;20029;-73
2022/11/13 07:39:31;;;;;;;18.90;11.15;;;;;;;-143.48;82.76;80329.03;5041394;28;20025;-77
2022/11/13 07:41:56;;;;;;;17.73;10.73;;;;;;;-143.48;82.96;80317.13;5040321;28;20037;-72
2022/11/13 07:44:22;;;;;;;17.33;10.73;;;;;;;-143.48;82.57;80327.03;5037750;28;20038;-71
2022/11/13 07:46:47;;;;;;;16.17;10.23;;;;;;;-143.48;82.83;80311.16;5037269;28;20457;-75
2022/11/13 07:49:12;;;;;;;16.80;11.25;;;;;;;-143.48;82.94;80307.19;5038109;28;20409;-73
2022/11/13 07:51:37;;;;;;;24.00;13.73;;;;;;;-143.48;82.89;80283.41;5036862;28;20064;-73
2022/11/13 07:54:03;;;;;;;34.05;17.65;;;;;;;-143.48;82.42;80249.66;5040226;28;20086;-73
2022/11/13 07:56:28;;;;;;;26.15;14.82;;;;;;;-143.48;81.65;80239.75;5038006;28;20389;-72
2022/11/13 07:58:53;;;;;;;30.23;17.35;;;;;;;-143.48;81.51;80227.84;5037596;28;20041;-72
2022/11/13 08:01:19;;;;;;;30.23;16.95;;;;;;;-143.48;81.76;80215.94;5035998;28;20029;-72
2022/11/13 08:03:44;;;;;;;25.80;15.65;;;;;;;-143.48;81.16;80192.13;5035473;28;20041;-72
2022/11/13 08:06:09;;;;;;;27.77;14.90;;;;;;;-143.48;80.90;80172.28;5036659;28;20029;-72
2022/11/13 08:08:35;;;;;;;22.85;13.70;;;;;;;-143.48;80.42;80174.25;5020503;28;20025;-71
2022/11/13 08:11:08;;;;;;;20.80;12.75;;;;;;;-143.48;79.82;80144.50;5036097;28;20018;-72
2022/11/13 08:13:34;;;;;;;22.42;13.70;;;;;;;-143.48;79.69;80142.53;5042223;28;20033;-74
2022/11/13 08:16:01;;;;;;;23.80;13.88;;;;;;;-143.48;80.21;80138.56;5042650;28;20057;-74
2022/11/13 08:18:30;;;;;;;23.50;13.95;;;;;;;-143.48;79.24;80114.75;5041702;28;20053;-76
2022/11/13 08:20:56;;;;;;;24.58;13.88;;;;;;;-143.48;79.15;80094.91;5041433;28;20473;-72
2022/11/13 08:23:21;;;;;;;21.88;13.70;;;;;;;-143.48;78.25;80088.94;5045873;28;20025;-72
2022/11/13 08:25:47;;;;;;;23.15;13.13;;;;;;;-143.48;78.14;80067.13;5043186;28;20376;-71
2022/11/13 08:28:13;;;;;;;20.42;12.32;;;;;;;-143.48;77.97;80065.13;5042028;28;20554;-71
2022/11/13 08:30:42;;;;;;;18.77;11.82;;;;;;;-143.48;77.85;80043.31;5037456;28;20025;-73
2022/11/13 08:33:07;;;;;;;18.75;11.98;;;;;;;-143.48;77.17;80031.41;5036340;28;20041;-73
2022/11/13 08:35:33;;;;;;;19.83;12.38;;;;;;;-143.48;77.06;80031.41;5038339;28;20452;-76
2022/11/13 08:38:07;;;;;;;20.02;13.15;;;;;;;-143.48;76.93;80009.59;5038165;28;20116;-76
2022/11/13 08:40:33;;;;;;;20.83;12.98;;;;;;;-143.48;76.70;80005.63;5046683;28;20025;-87
2022/11/13 08:43:00;;;;;;;18.67;12.55;;;;;;;-143.48;76.49;79997.69;5053978;28;20049;-81
2022/11/13 08:45:26;;;;;;;19.25;11.50;;;;;;;-143.48;76.30;79991.72;5052023;28;20057;-78
2022/11/13 08:47:51;;;;;;;18.58;11.68;;;;;;;-143.48;75.58;79991.72;5044111;28;20083;-72
2022/11/13 08:50:17;;;;;;;18.65;11.77;;;;;;;-143.48;75.54;79981.81;5041354;28;20477;-75
2022/11/13 08:52:42;;;;;;;18.77;11.82;;;;;;;-143.48;74.51;79954.03;5042712;28;20021;-73
2022/11/13 08:55:07;;;;;;;22.17;12.55;;;;;;;-143.48;74.35;79946.09;5045483;28;20036;-72
2022/11/13 08:57:33;;;;;;;18.30;11.13;;;;;;;-143.48;74.14;79948.09;5042710;28;20029;-79
2022/11/13 08:59:58;;;;;;;18.33;11.75;;;;;;;-143.48;73.96;79942.13;5032058;28;20052;-81
2022/11/13 09:02:25;;;;;;;14.57;10.75;;;;;;;-143.48;73.14;79940.16;5054053;28;20063;-80
2022/11/13 09:04:51;;;;;;;15.93;10.98;;;;;;;-143.48;73.29;79930.22;5053469;28;20045;-82
2022/11/13 09:07:16;;;;;;;17.17;11.30;;;;;;;-143.48;72.72;79926.25;5056325;28;20044;-81
2022/11/13 09:09:41;;;;;;;19.10;11.05;;;;;;;-143.48;71.90;79916.34;5055455;28;20010;-83
2022/11/13 09:12:07;;;;;;;18.02;10.75;;;;;;;-143.48;71.52;79906.41;5054711;28;20085;-83
2022/11/13 09:14:32;;;;;;;17.02;10.35;;;;;;;-143.48;70.94;79900.47;5056376;28;20020;-82
2022/11/13 09:16:58;;;;;;;16.70;10.90;;;;;;;-143.48;70.02;79874.69;5051449;28;20025;-81
2022/11/13 09:19:23;;;;;;;16.63;10.55;;;;;;;-143.48;70.47;79874.69;5054346;28;20053;-86
2022/11/13 09:21:50;;;;;;;15.40;10.23;;;;;;;-143.48;68.36;79817.16;5044297;28;20018;-80
2022/11/13 09:24:15;;;;;;;15.60;9.88;;;;;;;-143.48;59.25;79442.19;5037829;28;20041;-88
2022/11/13 09:26:40;;;;;;;16.35;10.15;;;;;;;-143.48;47.95;78970.09;5049695;28;20025;-88
2022/11/13 09:29:09;;;;;;;16.70;9.25;;;;;;;-143.48;42.63;78795.53;5047332;28;20018;-83
2022/11/13 09:31:34;;;;;;;12.40;8.50;;;;;;;-143.48;39.78;78650.75;5050721;28;20492;-81
2022/11/13 09:34:01;;;;;;;11.88;8.00;;;;;;;-143.48;38.87;78623.00;5047301;28;20045;-84
2022/11/13 09:36:26;;;;;;;10.05;7.65;;;;;;;-143.48;37.58;78555.56;5049042;28;20028;-85
2022/11/13 09:38:51;;;;;;;10.10;7.40;;;;;;;-143.48;37.69;78541.69;5048572;28;20025;-83
2022/11/13 09:41:21;;;;;;;10.65;7.35;;;;;;;-143.48;36.49;78484.16;5048989;28;20480;-81
2022/11/13 09:43:51;;;;;;;9.57;7.22;;;;;;;-143.48;37.14;78505.97;5041632;28;20365;-81
2022/11/13 09:47:04;;;;;;;8.88;6.97;;;;;;;-143.48;36.17;78496.06;5036633;28;20019;-80
2022/11/13 09:49:40;;;;;;;9.10;6.85;;;;;;;-143.48;36.73;78504.00;5026211;28;20080;-81
2022/11/13 09:52:16;;;;;;;10.82;6.88;;;;;;;-143.48;36.18;78500.03;5038005;28;20440;-81
2022/11/13 09:54:41;;;;;;;9.10;6.70;;;;;;;-143.48;36.04;78498.03;5034553;28;20021;-82
2022/11/13 09:57:31;;;;;;;9.35;6.57;;;;;;;-143.48;36.15;78519.88;5033225;28;20021;-81
2022/11/13 10:00:10;;;;;;;10.65;7.13;;;;;;;-143.48;37.09;78624.97;5034594;28;20531;-83
2022/11/13 10:03:07;;;;;;;7.35;6.10;;;;;;;-143.48;36.13;78525.81;5033516;28;20021;-82
2022/11/13 10:05:51;;;;;;;9.02;6.65;;;;;;;-143.48;36.32;78511.94;5000589;28;20037;-81
2022/11/13 10:08:46;;;;;;;11.40;6.30;;;;;;;-143.48;36.02;78464.34;5037764;28;20119;-82
2022/11/13 10:11:23;;;;;;;8.82;6.60;;;;;;;-143.48;35.59;78436.56;5038756;28;20021;-82
2022/11/13 10:13:53;;;;;;;8.43;5.75;;;;;;;-143.48;34.70;78400.88;5036246;28;20369;-82
2022/11/13 10:16:43;;;;;;;8.25;5.97;;;;;;;-143.48;34.39;78396.91;5036442;28;20021;-83
2022/11/13 10:19:24;;;;;;;8.93;5.55;;;;;;;-143.48;34.39;78394.91;5038100;28;20048;-82
2022/11/13 10:21:57;;;;;;;7.75;6.10;;;;;;;-143.48;33.25;78285.84;5038631;28;20024;-82
2022/11/13 10:24:28;;;;;;;9.30;5.95;;;;;;;-143.48;33.04;78256.09;5037643;28;20024;-82
2022/11/13 10:26:58;;;;;;;8.50;5.90;;;;;;;-143.48;34.00;78242.22;5035685;28;20037;-81
2022/11/13 10:29:27;;;;;;;8.05;5.80;;;;;;;-143.48;33.49;78200.56;5037265;28;20018;-83
2022/11/13 10:31:53;;;;;;;8.25;6.03;;;;;;;-143.48;33.04;78149.00;5037914;28;20017;-85
2022/11/13 10:34:19;;;;;;;8.27;6.13;;;;;;;-143.48;32.98;78139.09;5036202;28;20030;-88
2022/11/13 10:36:50;;;;;;;7.60;6.07;;;;;;;-143.48;31.82;78057.78;5034634;28;20029;-81
2022/11/13 10:39:15;;;;;;;8.65;6.13;;;;;;;-143.48;32.85;78127.19;5038500;28;20028;-86
2022/11/13 10:41:47;;;;;;;8.53;5.87;;;;;;;-143.48;32.13;78099.44;5036873;28;20041;-88
2022/11/13 10:44:22;;;;;;;7.88;5.30;;;;;;;-143.48;30.89;77976.47;5035438;28;20267;-81
2022/11/13 10:46:47;;;;;;;6.97;5.40;;;;;;;-143.48;31.63;78024.06;5036326;28;20434;-88
2022/11/13 10:49:19;;;;;;;10.32;7.10;;;;;;;-143.48;32.23;78093.47;5039761;28;20102;-82
2022/11/13 10:51:54;;;;;;;7.93;5.68;;;;;;;-143.48;31.89;78071.66;5032171;28;20131;-82
2022/11/13 10:54:27;;;;;;;8.90;6.22;;;;;;;-143.48;31.70;78037.94;5035723;28;20116;-87
2022/11/13 10:57:21;;;;;;;7.82;5.38;;;;;;;-143.48;30.78;77966.56;5038957;28;20025;-82
2022/11/13 10:59:46;;;;;;;8.02;5.50;;;;;;;-143.48;30.97;77988.38;5027942;28;20037;-82
2022/11/13 11:02:20;;;;;;;9.23;5.25;;;;;;;-143.48;30.83;77984.41;5033813;28;20035;-82
2022/11/13 11:04:47;;;;;;;6.30;5.05;;;;;;;-143.48;29.70;77821.81;5035889;28;20025;-83
2022/11/13 11:07:21;;;;;;;8.80;5.60;;;;;;;-143.48;30.28;77861.47;5043024;28;20026;-85
2022/11/13 11:09:47;;;;;;;6.70;5.32;;;;;;;-143.48;30.63;77903.09;5037453;28;20032;-83